< < Back
Terminal Aerodrome Forecast


Current Version              Previous Versions:   1  2  3  4  5  6  7  8  9  

Terminal Aerodrome Forecast

523
FTUS42 KCHS 252300
TAFSAV
TAF
KSAV 252320Z 2600/2624 20007KT P6SM FEW250
     FM260600 23008KT P6SM SCT030 BKN080 WS015/25035KT
     FM261400 28015G22KT P6SM BKN035
     FM261700 28018G28KT P6SM BKN040=



Latest METAR

751
SAUS80 KWBC 261400 RRB
MTRSAV
METAR KSAV 261353Z 29010G19KT 10SM FEW025 09/06 A2976 RMK AO2 SLP077
T00940061


USA.gov is the U.S. government's official web portal to all federal, state and local government web resources and services.